createdAt,value
2019-06-26T00:01:14.587Z,9.43
2019-06-26T00:05:21.526Z,8.90
2019-06-26T00:09:27.954Z,10.20
2019-06-26T00:13:34.678Z,9.60
2019-06-26T00:17:42.110Z,9.03
2019-06-26T00:21:49.814Z,8.87
2019-06-26T00:25:56.187Z,8.90
2019-06-26T00:30:04.286Z,8.40
2019-06-26T00:34:10.883Z,8.20
2019-06-26T00:38:18.251Z,9.17
2019-06-26T00:42:25.393Z,9.40
2019-06-26T00:46:31.850Z,8.43
2019-06-26T00:50:38.174Z,8.73
2019-06-26T00:54:44.450Z,8.90
2019-06-26T00:58:50.706Z,9.23
2019-06-26T01:02:57.067Z,9.20
2019-06-26T01:07:03.310Z,8.77
2019-06-26T01:11:11.482Z,9.27
2019-06-26T01:15:17.961Z,9.17
2019-06-26T01:19:24.409Z,9.00
2019-06-26T01:23:30.827Z,9.07
2019-06-26T01:27:38.277Z,9.63
2019-06-26T01:31:44.703Z,9.53
2019-06-26T01:35:52.826Z,9.07
2019-06-26T01:39:59.125Z,9.60
2019-06-26T01:44:14.725Z,8.70
2019-06-26T01:48:14.806Z,9.60
2019-06-26T01:52:22.098Z,9.60
2019-06-26T01:56:37.500Z,9.13
2019-06-26T02:00:43.767Z,9.53
2019-06-26T02:04:50.409Z,10.20
2019-06-26T02:08:57.258Z,10.23
2019-06-26T02:13:03.889Z,9.70
2019-06-26T02:17:10.147Z,9.37
2019-06-26T02:21:17.161Z,9.63
2019-06-26T02:25:23.408Z,10.50
2019-06-26T02:29:30.556Z,10.53
2019-06-26T02:33:41.422Z,10.63
2019-06-26T02:37:49.621Z,10.63
2019-06-26T02:41:57.553Z,10.10
2019-06-26T02:46:04.404Z,11.77
2019-06-26T02:50:11.950Z,12.03
2019-06-26T02:54:30.586Z,11.97
2019-06-26T02:58:49.862Z,13.33
2019-06-26T03:02:56.338Z,12.67
2019-06-26T03:07:04.609Z,13.77
2019-06-26T03:11:10.922Z,13.43
2019-06-26T03:15:17.710Z,14.03
2019-06-26T03:19:28.729Z,14.13
2019-06-26T03:23:36.061Z,15.17
2019-06-26T03:27:42.400Z,14.43
2019-06-26T03:31:52.650Z,14.80
2019-06-26T03:35:58.918Z,15.67
2019-06-26T03:40:06.986Z,14.20
2019-06-26T03:44:13.549Z,14.07
2019-06-26T03:48:24.003Z,13.87
2019-06-26T03:52:31.179Z,12.90
2019-06-26T03:56:56.417Z,12.00
2019-06-26T04:01:04.040Z,12.80
2019-06-26T04:05:10.423Z,12.97
2019-06-26T04:09:16.932Z,11.70
2019-06-26T04:13:24.117Z,11.60
2019-06-26T04:17:30.537Z,10.80
2019-06-26T04:21:36.905Z,10.70
2019-06-26T04:25:43.287Z,9.70
2019-06-26T04:29:50.065Z,9.03
2019-06-26T04:33:56.494Z,9.37
2019-06-26T04:38:04.197Z,9.33
2019-06-26T04:42:11.002Z,9.20
2019-06-26T04:46:17.465Z,9.13
2019-06-26T04:50:26.301Z,8.83
2019-06-26T04:54:32.609Z,7.93
2019-06-26T04:58:39.085Z,7.80
2019-06-26T05:02:45.536Z,7.40
2019-06-26T05:07:07.496Z,7.87
2019-06-26T05:11:20.493Z,6.73
2019-06-26T05:15:27.526Z,7.77
2019-06-26T05:19:34.222Z,6.70
2019-06-26T05:23:41.737Z,6.97
2019-06-26T05:27:48.209Z,6.63
2019-06-26T05:31:54.662Z,6.10
2019-06-26T05:36:01.153Z,5.43
2019-06-26T05:40:10.432Z,6.07
2019-06-26T05:44:17.057Z,5.83
2019-06-26T05:48:24.753Z,6.53
2019-06-26T05:52:31.200Z,5.33
2019-06-26T05:56:37.794Z,4.93
2019-06-26T06:00:44.350Z,5.80
2019-06-26T06:04:50.772Z,5.10
2019-06-26T06:08:57.585Z,4.83
2019-06-26T06:13:03.910Z,4.60
2019-06-26T06:17:10.520Z,4.83
2019-06-26T06:21:17.236Z,4.77
2019-06-26T06:25:24.737Z,4.50
2019-06-26T06:29:31.476Z,4.43
2019-06-26T06:33:37.946Z,4.33
2019-06-26T06:37:44.297Z,4.40
2019-06-26T06:41:52.041Z,4.00
2019-06-26T06:45:59.958Z,4.23
2019-06-26T06:50:08.438Z,3.77
2019-06-26T06:54:14.851Z,3.87
2019-06-26T06:58:21.405Z,3.87
2019-06-26T07:02:29.267Z,3.80
2019-06-26T07:06:35.732Z,4.03
2019-06-26T07:10:42.070Z,3.53
2019-06-26T07:14:48.598Z,3.30
2019-06-26T07:18:54.822Z,3.50
2019-06-26T07:23:01.069Z,3.30
2019-06-26T07:27:07.685Z,3.50
2019-06-26T07:31:14.193Z,3.67
2019-06-26T07:35:20.517Z,3.23
2019-06-26T07:39:26.788Z,3.40
2019-06-26T07:43:33.218Z,3.37
2019-06-26T07:47:43.657Z,3.33
2019-06-26T07:51:48.632Z,3.00
2019-06-26T07:55:54.921Z,3.10
2019-06-26T08:00:02.164Z,3.00
2019-06-26T08:04:09.342Z,2.93
2019-06-26T08:08:16.033Z,3.17
2019-06-26T08:12:22.523Z,3.27
2019-06-26T08:16:29.057Z,3.13
2019-06-26T08:20:51.623Z,3.00
2019-06-26T08:24:43.410Z,3.17
2019-06-26T08:28:49.836Z,3.47
2019-06-26T08:32:58.978Z,3.70
2019-06-26T08:37:25.279Z,3.43
2019-06-26T08:41:31.637Z,3.13
2019-06-26T08:45:37.879Z,2.90
2019-06-26T08:49:44.189Z,3.43
2019-06-26T08:53:50.736Z,3.57
2019-06-26T08:57:57.346Z,3.33
2019-06-26T09:02:03.621Z,3.17
2019-06-26T09:06:09.949Z,3.40
2019-06-26T09:10:18.041Z,3.60
2019-06-26T09:14:24.470Z,3.53
2019-06-26T09:18:35.280Z,3.63
2019-06-26T09:22:38.731Z,3.03
2019-06-26T09:26:44.970Z,3.43
2019-06-26T09:30:51.266Z,3.70
2019-06-26T09:34:57.978Z,3.13
2019-06-26T09:39:07.534Z,3.57
2019-06-26T09:43:19.413Z,3.37
2019-06-26T09:47:25.657Z,3.23
2019-06-26T09:51:32.371Z,3.17
2019-06-26T09:55:38.858Z,3.17
2019-06-26T09:59:45.932Z,3.10
2019-06-26T10:03:52.151Z,2.63
2019-06-26T10:07:58.477Z,3.07
2019-06-26T10:12:04.865Z,3.40
2019-06-26T10:16:12.397Z,3.27
2019-06-26T10:20:19.640Z,2.80
2019-06-26T10:24:39.377Z,3.53
2019-06-26T10:28:45.919Z,3.10
2019-06-26T10:32:52.637Z,3.10
2019-06-26T10:37:07.630Z,3.37
2019-06-26T10:41:13.856Z,3.80
2019-06-26T10:45:37.930Z,3.03
2019-06-26T10:50:02.678Z,3.20
2019-06-26T10:54:08.974Z,3.40
2019-06-26T10:58:15.698Z,3.70
2019-06-26T11:02:22.069Z,3.57
2019-06-26T11:06:28.367Z,3.30
2019-06-26T11:10:34.691Z,3.77
2019-06-26T11:14:41.610Z,3.37
2019-06-26T11:18:48.042Z,3.23
2019-06-26T11:22:54.291Z,3.80
2019-06-26T11:27:02.115Z,4.37
2019-06-26T11:31:11.703Z,4.30
2019-06-26T11:35:36.812Z,4.90
2019-06-26T11:40:01.806Z,4.90
2019-06-26T11:44:27.085Z,4.77
2019-06-26T11:48:33.358Z,4.80
2019-06-26T11:52:41.795Z,5.73
2019-06-26T11:57:07.738Z,4.63
2019-06-26T12:01:15.923Z,5.17
2019-06-26T12:05:40.186Z,4.70
2019-06-26T12:09:47.116Z,4.60
2019-06-26T12:13:54.680Z,5.37
2019-06-26T12:18:01.085Z,5.30
2019-06-26T12:22:07.341Z,5.43
2019-06-26T12:26:13.665Z,4.90
2019-06-26T12:30:23.750Z,4.90
2019-06-26T12:34:51.791Z,4.93
2019-06-26T12:39:16.826Z,5.20
2019-06-26T12:43:23.233Z,4.80
2019-06-26T12:47:29.565Z,5.67
2019-06-26T12:51:35.996Z,5.90
2019-06-26T12:55:42.437Z,5.43
2019-06-26T12:59:57.353Z,5.50
2019-06-26T13:03:57.361Z,6.07
2019-06-26T13:08:04.877Z,5.83
2019-06-26T13:12:10.897Z,5.45
2019-06-26T13:16:17.407Z,5.60
2019-06-26T13:20:31.957Z,6.10
2019-06-26T13:24:38.152Z,5.20
2019-06-26T13:28:44.617Z,5.97
2019-06-26T13:32:50.990Z,6.10
2019-06-26T13:36:57.397Z,5.97
2019-06-26T13:41:03.710Z,6.10
2019-06-26T13:45:12.026Z,5.30
2019-06-26T13:49:20.303Z,6.00
2019-06-26T13:53:44.690Z,5.43
2019-06-26T13:57:51.206Z,5.95
2019-06-26T14:01:59.639Z,5.80
2019-06-26T14:06:05.953Z,5.53
2019-06-26T14:10:13.227Z,5.80
2019-06-26T14:14:20.562Z,5.77
2019-06-26T14:18:30.371Z,5.40
2019-06-26T14:22:37.315Z,5.43
2019-06-26T14:26:43.713Z,5.70
2019-06-26T14:30:49.961Z,5.97
2019-06-26T14:34:56.306Z,5.67
2019-06-26T14:39:02.530Z,5.37
2019-06-26T14:43:10.590Z,5.90
2019-06-26T14:47:16.991Z,5.13
2019-06-26T14:51:23.551Z,5.47
2019-06-26T14:55:29.878Z,6.30
2019-06-26T14:59:38.447Z,5.80
2019-06-26T15:03:44.783Z,6.00
2019-06-26T15:07:52.138Z,5.77
2019-06-26T15:11:58.570Z,6.23
2019-06-26T15:16:22.958Z,6.00
2019-06-26T15:20:29.271Z,5.83
2019-06-26T15:24:35.543Z,5.83
2019-06-26T15:28:46.166Z,6.17
2019-06-26T15:33:10.773Z,7.00
2019-06-26T15:37:18.629Z,6.63
2019-06-26T15:41:26.547Z,7.00
2019-06-26T15:45:51.491Z,6.47
2019-06-26T15:50:10.463Z,5.80
2019-06-26T15:54:32.906Z,6.83
2019-06-26T15:58:44.538Z,7.00
2019-06-26T16:02:53.722Z,6.77
2019-06-26T16:07:18.810Z,8.97
2019-06-26T16:11:36.733Z,6.90
2019-06-26T16:15:42.968Z,6.50
2019-06-26T16:19:49.221Z,7.00
2019-06-26T16:23:55.475Z,8.23
2019-06-26T16:28:05.863Z,7.83
2019-06-26T16:32:09.895Z,6.30
2019-06-26T16:36:16.127Z,6.33
2019-06-26T16:40:22.373Z,7.20
2019-06-26T16:44:28.631Z,6.43
2019-06-26T16:48:34.955Z,6.93
2019-06-26T16:52:49.315Z,6.77
2019-06-26T16:56:50.442Z,6.92
2019-06-26T17:00:56.826Z,6.33
2019-06-26T17:05:03.151Z,6.57
2019-06-26T17:09:09.753Z,6.53
2019-06-26T17:13:16.010Z,6.57
2019-06-26T17:17:22.290Z,7.00
2019-06-26T17:21:28.802Z,6.70
2019-06-26T17:25:36.748Z,7.57
2019-06-26T17:29:45.259Z,7.20
2019-06-26T17:33:51.515Z,7.50
2019-06-26T17:37:57.760Z,6.10
2019-06-26T17:42:04.002Z,7.17
2019-06-26T17:46:11.040Z,7.93
2019-06-26T17:50:19.074Z,7.43
2019-06-26T17:54:25.339Z,7.07
2019-06-26T17:58:31.660Z,7.00
2019-06-26T18:02:37.918Z,7.67
2019-06-26T18:06:44.154Z,7.30
2019-06-26T18:10:50.476Z,7.20
2019-06-26T18:14:56.731Z,7.90
2019-06-26T18:19:03.046Z,7.93
2019-06-26T18:23:09.300Z,7.77
2019-06-26T18:27:15.610Z,8.77
2019-06-26T18:31:21.870Z,8.53
2019-06-26T18:35:28.138Z,7.93
2019-06-26T18:39:35.465Z,7.90
2019-06-26T18:43:41.917Z,8.07
2019-06-26T18:47:48.891Z,7.43
2019-06-26T18:51:55.153Z,8.37
2019-06-26T18:56:01.691Z,9.43
2019-06-26T19:00:08.733Z,8.60
2019-06-26T19:04:15.317Z,8.30
2019-06-26T19:08:22.297Z,7.33
2019-06-26T19:12:28.582Z,8.13
2019-06-26T19:16:36.764Z,7.47
2019-06-26T19:20:43.170Z,8.93
2019-06-26T19:24:49.850Z,8.40
2019-06-26T19:28:56.220Z,8.37
2019-06-26T19:33:02.584Z,9.13
2019-06-26T19:37:10.005Z,9.00
2019-06-26T19:41:16.498Z,8.53
2019-06-26T19:45:24.547Z,9.60
2019-06-26T19:49:30.789Z,8.80
2019-06-26T19:53:38.236Z,9.27
2019-06-26T19:57:44.930Z,9.10
2019-06-26T20:01:53.028Z,8.77
2019-06-26T20:06:01.273Z,8.80
2019-06-26T20:10:11.456Z,9.13
2019-06-26T20:14:21.466Z,8.93
2019-06-26T20:18:28.551Z,8.83
2019-06-26T20:22:34.887Z,8.90
2019-06-26T20:26:48.021Z,8.40
2019-06-26T20:30:54.682Z,8.77
2019-06-26T20:35:01.085Z,7.97
2019-06-26T20:39:07.478Z,13.90
2019-06-26T20:43:15.053Z,9.27
2019-06-26T20:47:21.501Z,9.10
2019-06-26T20:51:27.973Z,9.30
2019-06-26T20:55:34.356Z,8.67
2019-06-26T20:59:40.581Z,8.90
2019-06-26T21:03:46.914Z,8.07
2019-06-26T21:07:53.233Z,9.23
2019-06-26T21:11:59.957Z,8.83
2019-06-26T21:16:06.214Z,7.93
2019-06-26T21:20:12.562Z,7.97
2019-06-26T21:24:18.870Z,8.13
2019-06-26T21:28:26.095Z,8.93
2019-06-26T21:32:32.467Z,9.10
2019-06-26T21:36:38.738Z,9.17
2019-06-26T21:40:45.146Z,8.27
2019-06-26T21:44:53.542Z,9.00
2019-06-26T21:48:59.912Z,8.37
2019-06-26T21:53:06.466Z,8.57
2019-06-26T21:57:13.715Z,8.73
2019-06-26T22:01:38.347Z,9.57
2019-06-26T22:06:03.055Z,9.60
2019-06-26T22:10:21.330Z,9.20
2019-06-26T22:14:34.498Z,8.50
2019-06-26T22:18:40.902Z,8.47
2019-06-26T22:22:47.331Z,8.17
2019-06-26T22:26:54.942Z,9.23
2019-06-26T22:31:01.172Z,7.57
2019-06-26T22:35:08.629Z,7.70
2019-06-26T22:39:18.170Z,8.40
2019-06-26T22:43:29.274Z,7.57
2019-06-26T22:47:36.794Z,7.80
2019-06-26T22:51:46.735Z,7.33
2019-06-26T22:56:06.699Z,7.20
2019-06-26T23:00:04.839Z,7.30
2019-06-26T23:04:31.082Z,7.17
2019-06-26T23:08:38.465Z,6.97
2019-06-26T23:12:48.145Z,7.03
2019-06-26T23:16:55.059Z,6.33
2019-06-26T23:21:01.499Z,6.70
2019-06-26T23:25:16.695Z,7.03
2019-06-26T23:29:23.865Z,6.47
2019-06-26T23:33:34.433Z,6.17
2019-06-26T23:37:43.515Z,6.57
2019-06-26T23:41:53.707Z,7.17
2019-06-26T23:46:00.126Z,6.73
2019-06-26T23:50:09.058Z,6.70
2019-06-26T23:54:16.982Z,6.77
2019-06-26T23:58:25.975Z,6.83
